createdAt,value
2023-05-23T00:01:16.322Z,14.83
2023-05-23T00:04:01.668Z,14.79
2023-05-23T00:06:46.866Z,14.71
2023-05-23T00:09:32.491Z,14.60
2023-05-23T00:12:17.568Z,14.60
2023-05-23T00:15:03.390Z,14.53
2023-05-23T00:17:48.671Z,14.39
2023-05-23T00:20:34.175Z,14.38
2023-05-23T00:23:19.649Z,14.42
2023-05-23T00:26:04.811Z,14.37
2023-05-23T00:28:50.314Z,14.32
2023-05-23T00:31:35.804Z,14.30
2023-05-23T00:34:21.201Z,14.26
2023-05-23T00:37:06.617Z,14.33
2023-05-23T00:39:52.513Z,14.38
2023-05-23T00:42:37.666Z,14.38
2023-05-23T00:45:22.594Z,14.48
2023-05-23T00:48:07.760Z,14.41
2023-05-23T00:50:54.004Z,14.39
2023-05-23T00:53:39.418Z,14.62
2023-05-23T00:56:24.884Z,14.70
2023-05-23T00:59:10.088Z,14.63
2023-05-23T01:01:57.457Z,14.60
2023-05-23T01:04:43.955Z,14.56
2023-05-23T01:07:29.192Z,14.66
2023-05-23T01:10:23.377Z,14.64
2023-05-23T01:13:30.424Z,14.42
2023-05-23T01:16:40.421Z,14.37
2023-05-23T01:20:04.243Z,14.30
2023-05-23T01:22:58.306Z,14.29
2023-05-23T01:26:01.865Z,14.16
2023-05-23T01:28:50.379Z,14.18
2023-05-23T01:31:39.510Z,14.28
2023-05-23T01:34:25.163Z,14.21
2023-05-23T01:37:11.520Z,14.18
2023-05-23T01:39:56.646Z,14.13
2023-05-23T01:42:42.091Z,14.16
2023-05-23T01:45:29.264Z,14.07
2023-05-23T01:48:15.694Z,14.07
2023-05-23T01:51:01.709Z,14.04
2023-05-23T01:53:46.855Z,13.99
2023-05-23T01:56:33.370Z,14.09
2023-05-23T01:59:18.392Z,14.09
2023-05-23T02:02:04.252Z,14.08
2023-05-23T02:04:49.726Z,14.14
2023-05-23T02:07:34.888Z,14.24
2023-05-23T02:10:20.209Z,14.22
2023-05-23T02:13:05.306Z,14.16
2023-05-23T02:15:50.751Z,14.07
2023-05-23T02:18:35.812Z,14.08
2023-05-23T02:21:21.246Z,14.05
2023-05-23T02:24:06.510Z,14.13
2023-05-23T02:26:51.784Z,14.01
2023-05-23T02:29:37.186Z,14.09
2023-05-23T02:32:22.385Z,14.14
2023-05-23T02:35:08.533Z,14.16
2023-05-23T02:37:53.803Z,14.09
2023-05-23T02:40:39.117Z,14.24
2023-05-23T02:43:25.791Z,14.17
2023-05-23T02:46:10.793Z,14.24
2023-05-23T02:48:56.283Z,14.22
2023-05-23T02:51:41.758Z,14.06
2023-05-23T02:54:26.827Z,14.16
2023-05-23T02:57:12.205Z,14.22
2023-05-23T02:59:57.639Z,14.16
2023-05-23T03:02:43.161Z,14.17
2023-05-23T03:05:28.436Z,14.25
2023-05-23T03:08:13.822Z,14.08
2023-05-23T03:10:58.774Z,14.15
2023-05-23T03:13:44.211Z,13.99
2023-05-23T03:16:29.700Z,14.00
2023-05-23T03:19:15.013Z,13.98
2023-05-23T03:22:00.342Z,13.73
2023-05-23T03:24:45.663Z,13.59
2023-05-23T03:27:30.979Z,13.62
2023-05-23T03:30:16.508Z,13.48
2023-05-23T03:33:01.938Z,13.56
2023-05-23T03:35:47.265Z,13.49
2023-05-23T03:38:32.598Z,13.62
2023-05-23T03:41:17.962Z,13.41
2023-05-23T03:44:03.449Z,13.37
2023-05-23T03:46:49.119Z,13.20
2023-05-23T03:49:34.489Z,13.07
2023-05-23T03:52:19.579Z,13.12
2023-05-23T03:55:05.386Z,13.14
2023-05-23T03:57:53.912Z,13.27
2023-05-23T04:00:39.178Z,13.27
2023-05-23T04:03:24.775Z,13.41
2023-05-23T04:06:12.149Z,13.46
2023-05-23T04:08:58.146Z,13.38
2023-05-23T04:11:43.907Z,13.28
2023-05-23T04:14:28.820Z,13.38
2023-05-23T04:17:13.721Z,13.43
2023-05-23T04:19:58.763Z,13.60
2023-05-23T04:22:43.954Z,13.61
2023-05-23T04:25:29.293Z,13.59
2023-05-23T04:28:14.109Z,13.59
2023-05-23T04:30:59.466Z,13.67
2023-05-23T04:33:44.847Z,13.62
2023-05-23T04:36:30.281Z,13.71
2023-05-23T04:39:16.269Z,13.75
2023-05-23T04:42:01.674Z,13.79
2023-05-23T04:44:46.568Z,13.84
2023-05-23T04:47:31.340Z,13.84
2023-05-23T04:50:16.823Z,13.85
2023-05-23T04:53:02.262Z,13.94
2023-05-23T04:55:47.763Z,13.94
2023-05-23T04:58:32.936Z,13.95
2023-05-23T05:01:17.936Z,13.98
2023-05-23T05:04:03.537Z,14.00
2023-05-23T05:06:48.907Z,13.93
2023-05-23T05:09:34.340Z,13.94
2023-05-23T05:12:19.701Z,13.98
2023-05-23T05:15:05.034Z,14.02
2023-05-23T05:17:50.846Z,14.04
2023-05-23T05:20:35.898Z,14.05
2023-05-23T05:23:25.089Z,14.04
2023-05-23T05:26:10.664Z,14.02
2023-05-23T05:28:55.860Z,14.07
2023-05-23T05:31:41.301Z,14.00
2023-05-23T05:34:27.043Z,14.15
2023-05-23T05:37:12.396Z,14.19
2023-05-23T05:39:57.702Z,14.20
2023-05-23T05:42:43.061Z,14.23
2023-05-23T05:45:28.184Z,14.21
2023-05-23T05:48:13.853Z,14.19
2023-05-23T05:50:58.989Z,14.20
2023-05-23T05:53:44.400Z,14.06
2023-05-23T05:56:29.560Z,14.13
2023-05-23T05:59:14.717Z,13.98
2023-05-23T06:01:59.932Z,14.01
2023-05-23T06:04:44.862Z,14.03
2023-05-23T06:07:30.684Z,14.02
2023-05-23T06:10:15.850Z,14.07
2023-05-23T06:13:01.360Z,14.05
2023-05-23T06:15:46.497Z,14.05
2023-05-23T06:18:32.100Z,14.16
2023-05-23T06:21:17.319Z,14.05
2023-05-23T06:24:02.913Z,14.16
2023-05-23T06:26:48.285Z,13.94
2023-05-23T06:29:33.453Z,13.93
2023-05-23T06:32:18.652Z,13.94
2023-05-23T06:35:04.412Z,13.95
2023-05-23T06:37:49.271Z,13.87
2023-05-23T06:40:34.693Z,13.68
2023-05-23T06:43:20.192Z,13.59
2023-05-23T06:46:05.640Z,13.68
2023-05-23T06:48:59.164Z,13.56
2023-05-23T06:51:52.621Z,13.62
2023-05-23T06:54:37.888Z,13.66
2023-05-23T06:57:22.715Z,13.71
2023-05-23T07:00:08.294Z,13.62
2023-05-23T07:02:53.345Z,13.58
2023-05-23T07:05:41.121Z,13.53
2023-05-23T07:08:27.102Z,13.32
2023-05-23T07:11:12.353Z,13.36
2023-05-23T07:13:57.686Z,13.24
2023-05-23T07:16:43.054Z,13.34
2023-05-23T07:19:28.485Z,13.40
2023-05-23T07:22:14.001Z,13.32
2023-05-23T07:24:59.467Z,13.38
2023-05-23T07:27:44.979Z,13.29
2023-05-23T07:30:32.015Z,13.13
2023-05-23T07:33:18.546Z,13.24
2023-05-23T07:36:04.112Z,13.17
2023-05-23T07:38:49.234Z,13.15
2023-05-23T07:41:34.146Z,13.17
2023-05-23T07:44:21.067Z,13.20
2023-05-23T07:47:07.337Z,13.35
2023-05-23T07:49:52.242Z,13.42
2023-05-23T07:52:37.624Z,13.48
2023-05-23T07:55:23.002Z,13.49
2023-05-23T07:58:07.833Z,13.51
2023-05-23T08:00:53.368Z,13.52
2023-05-23T08:03:38.679Z,13.37
2023-05-23T08:06:24.152Z,13.58
2023-05-23T08:09:09.618Z,13.68
2023-05-23T08:11:54.418Z,13.71
2023-05-23T08:14:50.536Z,13.57
2023-05-23T08:17:37.552Z,13.42
2023-05-23T08:20:22.867Z,13.28
2023-05-23T08:23:07.760Z,13.29
2023-05-23T08:25:54.616Z,13.36
2023-05-23T08:28:39.814Z,13.44
2023-05-23T08:31:25.067Z,13.42
2023-05-23T08:34:10.956Z,13.45
2023-05-23T08:36:56.330Z,13.39
2023-05-23T08:39:41.904Z,13.28
2023-05-23T08:42:27.344Z,13.29
2023-05-23T08:45:12.457Z,13.29
2023-05-23T08:48:00.612Z,13.41
2023-05-23T08:50:47.996Z,13.31
2023-05-23T08:53:35.958Z,13.27
2023-05-23T08:56:21.577Z,13.23
2023-05-23T08:59:09.071Z,13.14
2023-05-23T09:01:55.955Z,13.18
2023-05-23T09:04:41.035Z,13.18
2023-05-23T09:07:28.996Z,13.19
2023-05-23T09:10:14.807Z,13.24
2023-05-23T09:13:00.295Z,13.22
2023-05-23T09:15:57.752Z,13.29
2023-05-23T09:18:44.576Z,13.14
2023-05-23T09:21:31.795Z,13.15
2023-05-23T09:24:16.960Z,13.18
2023-05-23T09:27:02.048Z,13.13
2023-05-23T09:29:48.661Z,13.18
2023-05-23T09:32:33.799Z,13.17
2023-05-23T09:35:23.240Z,13.20
2023-05-23T09:38:08.747Z,13.17
2023-05-23T09:40:55.187Z,13.05
2023-05-23T09:43:49.991Z,13.04
2023-05-23T09:46:36.903Z,12.99
2023-05-23T09:49:22.484Z,12.98
2023-05-23T09:52:07.425Z,12.89
2023-05-23T09:54:54.515Z,12.97
2023-05-23T09:57:41.755Z,12.88
2023-05-23T10:00:27.796Z,12.93
2023-05-23T10:03:13.894Z,12.83
2023-05-23T10:06:10.886Z,12.93
2023-05-23T10:09:06.428Z,12.86
2023-05-23T10:12:07.209Z,13.03
2023-05-23T10:14:57.290Z,12.84
2023-05-23T10:17:55.174Z,12.81
2023-05-23T10:20:47.620Z,12.81
2023-05-23T10:23:33.945Z,12.77
2023-05-23T10:26:20.166Z,12.81
2023-05-23T10:29:06.932Z,12.88
2023-05-23T10:31:53.752Z,12.68
2023-05-23T10:34:44.705Z,12.67
2023-05-23T10:37:50.876Z,12.60
2023-05-23T10:40:51.347Z,12.81
2023-05-23T10:43:55.279Z,12.67
2023-05-23T10:46:55.001Z,12.99
2023-05-23T10:49:45.002Z,13.17
2023-05-23T10:52:39.703Z,13.19
2023-05-23T10:55:24.868Z,13.23
2023-05-23T10:58:16.993Z,13.17
2023-05-23T11:01:09.886Z,13.10
2023-05-23T11:03:56.025Z,13.32
2023-05-23T11:06:43.473Z,13.55
2023-05-23T11:09:28.767Z,13.84
2023-05-23T11:12:14.197Z,14.12
2023-05-23T11:14:59.457Z,14.29
2023-05-23T11:17:53.211Z,13.99
2023-05-23T11:20:38.990Z,14.40
2023-05-23T11:23:39.958Z,14.54
2023-05-23T11:26:32.313Z,14.41
2023-05-23T11:29:19.529Z,14.22
2023-05-23T11:32:17.337Z,14.37
2023-05-23T11:35:04.516Z,14.46
2023-05-23T11:37:50.055Z,14.32
2023-05-23T11:40:39.208Z,14.41
2023-05-23T11:43:24.416Z,14.29
2023-05-23T11:46:09.912Z,14.13
2023-05-23T11:48:55.437Z,14.08
2023-05-23T11:51:40.903Z,14.00
2023-05-23T11:54:26.714Z,14.00
2023-05-23T11:57:13.701Z,13.85
2023-05-23T11:59:59.089Z,13.77
2023-05-23T12:02:46.064Z,13.80
2023-05-23T12:05:31.176Z,13.59
2023-05-23T12:08:16.240Z,13.77
2023-05-23T12:11:02.952Z,13.90
2023-05-23T12:13:48.085Z,14.11
2023-05-23T12:16:34.610Z,14.48
2023-05-23T12:19:20.727Z,14.51
2023-05-23T12:22:07.321Z,14.66
2023-05-23T12:24:56.351Z,14.74
2023-05-23T12:27:41.929Z,14.80
2023-05-23T12:30:27.176Z,14.80
2023-05-23T12:33:13.094Z,15.19
2023-05-23T12:35:58.633Z,15.72
2023-05-23T12:38:43.801Z,15.84
2023-05-23T12:41:32.047Z,15.67
2023-05-23T12:44:17.176Z,15.44
2023-05-23T12:47:03.855Z,15.76
2023-05-23T12:49:48.958Z,16.33
2023-05-23T12:52:34.401Z,16.18
2023-05-23T12:55:19.993Z,15.97
2023-05-23T12:58:05.139Z,15.98
2023-05-23T13:00:50.880Z,15.77
2023-05-23T13:03:36.093Z,15.86
2023-05-23T13:06:21.617Z,15.69
2023-05-23T13:09:07.105Z,15.93
2023-05-23T13:11:52.343Z,16.24
2023-05-23T13:14:38.619Z,16.16
2023-05-23T13:17:23.703Z,16.29
2023-05-23T13:20:11.017Z,16.31
2023-05-23T13:23:00.037Z,15.89
2023-05-23T13:25:45.306Z,15.81
2023-05-23T13:28:30.639Z,16.11
2023-05-23T13:31:16.546Z,16.30
2023-05-23T13:34:01.753Z,16.40
2023-05-23T13:36:46.790Z,16.14
2023-05-23T13:39:32.102Z,16.08
2023-05-23T13:42:17.467Z,16.39
2023-05-23T13:45:02.987Z,16.43
2023-05-23T13:47:48.107Z,16.53
2023-05-23T13:50:33.641Z,16.26
2023-05-23T13:53:19.103Z,16.39
2023-05-23T13:56:04.400Z,16.11
2023-05-23T13:58:49.566Z,15.69
2023-05-23T14:01:35.059Z,15.53
2023-05-23T14:04:20.775Z,15.49
2023-05-23T14:07:06.050Z,15.58
2023-05-23T14:09:50.909Z,15.58
2023-05-23T14:12:36.218Z,15.56
2023-05-23T14:15:21.839Z,15.63
2023-05-23T14:18:07.108Z,15.63
2023-05-23T14:20:52.396Z,15.78
2023-05-23T14:23:37.450Z,15.66
2023-05-23T14:26:22.649Z,15.66
2023-05-23T14:29:07.993Z,15.74
2023-05-23T14:31:53.418Z,15.89
2023-05-23T14:34:38.796Z,15.79
2023-05-23T14:37:25.660Z,15.72
2023-05-23T14:40:11.312Z,15.79
2023-05-23T14:42:56.362Z,15.99
2023-05-23T14:45:41.985Z,15.98
2023-05-23T14:48:27.519Z,15.79
2023-05-23T14:51:23.669Z,15.64
2023-05-23T14:54:15.620Z,15.50
2023-05-23T14:57:02.283Z,15.67
2023-05-23T14:59:47.476Z,15.88
2023-05-23T15:02:32.856Z,15.74
2023-05-23T15:05:18.138Z,15.80
2023-05-23T15:08:03.598Z,15.87
2023-05-23T15:10:48.941Z,15.67
2023-05-23T15:13:34.841Z,15.59
2023-05-23T15:16:20.367Z,15.57
2023-05-23T15:19:06.534Z,15.37
2023-05-23T15:21:52.051Z,15.12
2023-05-23T15:24:40.753Z,15.24
2023-05-23T15:27:26.506Z,15.29
2023-05-23T15:30:13.543Z,15.45
2023-05-23T15:33:01.350Z,15.53
2023-05-23T15:35:47.416Z,15.66
2023-05-23T15:38:33.148Z,15.72
2023-05-23T15:41:18.670Z,15.71
2023-05-23T15:44:04.137Z,15.61
2023-05-23T15:46:51.333Z,15.35
2023-05-23T15:49:36.722Z,15.37
2023-05-23T15:52:22.015Z,15.36
2023-05-23T15:55:07.666Z,15.54
2023-05-23T15:57:53.607Z,15.75
2023-05-23T16:00:39.135Z,15.67
2023-05-23T16:03:24.469Z,15.38
2023-05-23T16:06:09.884Z,15.64
2023-05-23T16:08:54.924Z,15.63
2023-05-23T16:11:40.139Z,15.67
2023-05-23T16:14:25.419Z,15.54
2023-05-23T16:17:10.771Z,15.68
2023-05-23T16:19:55.915Z,15.81
2023-05-23T16:22:41.451Z,15.40
2023-05-23T16:25:26.929Z,15.34
2023-05-23T16:28:11.942Z,15.32
2023-05-23T16:30:56.809Z,15.27
2023-05-23T16:33:42.967Z,15.25
2023-05-23T16:36:28.747Z,15.17
2023-05-23T16:39:14.093Z,15.06
2023-05-23T16:42:00.579Z,14.98
2023-05-23T16:44:45.703Z,14.89
2023-05-23T16:47:30.979Z,14.94
2023-05-23T16:50:16.557Z,14.75
2023-05-23T16:53:01.681Z,14.66
2023-05-23T16:55:47.365Z,14.69
2023-05-23T16:58:32.621Z,14.54
2023-05-23T17:01:17.574Z,14.49
2023-05-23T17:04:04.433Z,14.43
2023-05-23T17:06:49.857Z,14.46
2023-05-23T17:09:35.985Z,14.43
2023-05-23T17:12:21.110Z,14.32
2023-05-23T17:15:07.183Z,14.26
2023-05-23T17:17:52.574Z,14.27
2023-05-23T17:20:37.974Z,14.28
2023-05-23T17:23:23.007Z,14.25
2023-05-23T17:26:08.491Z,14.27
2023-05-23T17:28:53.824Z,14.31
2023-05-23T17:31:38.944Z,14.43
2023-05-23T17:34:24.279Z,14.37
2023-05-23T17:37:09.668Z,14.31
2023-05-23T17:39:57.500Z,14.32
2023-05-23T17:42:42.930Z,14.38
2023-05-23T17:45:28.224Z,14.43
2023-05-23T17:48:15.407Z,14.52
2023-05-23T17:51:00.532Z,14.53
2023-05-23T17:53:45.459Z,14.48
2023-05-23T17:56:30.304Z,14.45
2023-05-23T17:59:15.460Z,14.53
2023-05-23T18:02:00.897Z,14.56
2023-05-23T18:04:46.508Z,14.47
2023-05-23T18:07:31.770Z,14.47
2023-05-23T18:10:17.217Z,14.32
2023-05-23T18:13:02.604Z,14.33
2023-05-23T18:15:48.001Z,14.20
2023-05-23T18:18:33.845Z,14.03
2023-05-23T18:21:19.414Z,13.67
2023-05-23T18:24:04.635Z,13.58
2023-05-23T18:26:50.220Z,13.32
2023-05-23T18:29:35.859Z,13.27
2023-05-23T18:32:21.060Z,13.22
2023-05-23T18:35:07.129Z,13.07
2023-05-23T18:37:53.621Z,13.11
2023-05-23T18:40:38.870Z,13.16
2023-05-23T18:43:24.046Z,13.12
2023-05-23T18:46:09.676Z,12.92
2023-05-23T18:48:54.591Z,12.94
2023-05-23T18:51:39.978Z,12.85
2023-05-23T18:54:25.479Z,12.81
2023-05-23T18:57:11.243Z,12.68
2023-05-23T18:59:56.696Z,12.71
2023-05-23T19:02:42.091Z,12.65
2023-05-23T19:05:27.390Z,12.63
2023-05-23T19:08:12.562Z,12.71
2023-05-23T19:11:01.258Z,12.55
2023-05-23T19:13:46.603Z,12.51
2023-05-23T19:16:31.878Z,12.49
2023-05-23T19:19:17.331Z,12.45
2023-05-23T19:22:03.062Z,12.43
2023-05-23T19:24:48.350Z,12.36
2023-05-23T19:27:33.538Z,12.26
2023-05-23T19:30:24.677Z,12.09
2023-05-23T19:33:10.013Z,11.94
2023-05-23T19:35:55.253Z,11.88
2023-05-23T19:38:40.298Z,11.87
2023-05-23T19:41:25.717Z,11.91
2023-05-23T19:44:11.089Z,11.74
2023-05-23T19:46:56.670Z,11.75
2023-05-23T19:49:41.894Z,11.66
2023-05-23T19:52:27.045Z,11.64
2023-05-23T19:55:12.477Z,11.48
2023-05-23T19:57:58.207Z,11.49
2023-05-23T20:00:43.487Z,11.57
2023-05-23T20:03:28.776Z,11.55
2023-05-23T20:06:14.244Z,11.46
2023-05-23T20:08:59.586Z,11.43
2023-05-23T20:11:45.062Z,11.18
2023-05-23T20:14:30.935Z,11.00
2023-05-23T20:17:16.400Z,11.00
2023-05-23T20:20:01.725Z,10.95
2023-05-23T20:22:46.929Z,11.05
2023-05-23T20:25:32.667Z,10.95
2023-05-23T20:28:17.861Z,10.93
2023-05-23T20:31:03.508Z,10.97
2023-05-23T20:33:48.578Z,10.91
2023-05-23T20:36:34.272Z,10.69
2023-05-23T20:39:21.804Z,10.76
2023-05-23T20:42:07.957Z,10.62
2023-05-23T20:44:53.266Z,10.62
2023-05-23T20:47:38.856Z,10.54
2023-05-23T20:50:23.930Z,10.41
2023-05-23T20:53:09.390Z,10.54
2023-05-23T20:55:54.810Z,10.44
2023-05-23T20:58:40.059Z,10.47
2023-05-23T21:01:25.416Z,10.33
2023-05-23T21:04:10.688Z,10.32
2023-05-23T21:06:56.103Z,10.27
2023-05-23T21:09:41.419Z,10.21
2023-05-23T21:12:27.444Z,10.25
2023-05-23T21:15:12.411Z,10.12
2023-05-23T21:17:58.137Z,10.28
2023-05-23T21:20:43.825Z,10.31
2023-05-23T21:23:28.975Z,10.17
2023-05-23T21:26:14.334Z,10.13
2023-05-23T21:28:59.666Z,10.19
2023-05-23T21:31:45.304Z,10.15
2023-05-23T21:34:30.646Z,10.10
2023-05-23T21:37:15.890Z,9.75
2023-05-23T21:40:01.425Z,9.72
2023-05-23T21:42:46.766Z,9.60
2023-05-23T21:45:32.329Z,9.56
2023-05-23T21:48:17.371Z,9.41
2023-05-23T21:51:02.823Z,9.37
2023-05-23T21:53:48.131Z,9.15
2023-05-23T21:56:33.963Z,9.26
2023-05-23T21:59:19.025Z,9.17
2023-05-23T22:02:04.869Z,9.23
2023-05-23T22:04:49.717Z,9.04
2023-05-23T22:07:35.245Z,9.15
2023-05-23T22:10:20.540Z,9.05
2023-05-23T22:13:06.768Z,9.10
2023-05-23T22:15:52.247Z,9.10
2023-05-23T22:18:50.985Z,8.95
2023-05-23T22:21:37.097Z,8.96
2023-05-23T22:24:22.924Z,8.90
2023-05-23T22:27:08.271Z,8.91
2023-05-23T22:29:53.706Z,8.70
2023-05-23T22:32:39.246Z,8.96
2023-05-23T22:35:24.483Z,8.91
2023-05-23T22:38:10.127Z,8.89
2023-05-23T22:40:55.160Z,8.70
2023-05-23T22:43:41.060Z,8.60
2023-05-23T22:46:26.204Z,8.52
2023-05-23T22:49:11.489Z,8.57
2023-05-23T22:51:57.623Z,8.49
2023-05-23T22:54:42.991Z,8.49
2023-05-23T22:57:28.296Z,8.48
2023-05-23T23:00:13.653Z,8.32
2023-05-23T23:02:58.655Z,8.41
2023-05-23T23:05:44.160Z,8.35
2023-05-23T23:08:29.319Z,8.31
2023-05-23T23:11:14.568Z,8.39
2023-05-23T23:13:59.873Z,8.20
2023-05-23T23:16:45.529Z,8.13
2023-05-23T23:19:30.930Z,8.08
2023-05-23T23:22:16.249Z,8.01
2023-05-23T23:25:02.992Z,8.13
2023-05-23T23:27:48.402Z,8.00
2023-05-23T23:30:33.844Z,7.78
2023-05-23T23:33:19.456Z,7.70
2023-05-23T23:36:05.102Z,7.52
2023-05-23T23:38:50.430Z,7.59
2023-05-23T23:41:35.749Z,7.59
2023-05-23T23:44:20.956Z,7.65
2023-05-23T23:47:05.948Z,7.68
2023-05-23T23:49:51.227Z,7.52
2023-05-23T23:52:37.125Z,7.36
2023-05-23T23:55:22.140Z,7.35
2023-05-23T23:58:07.435Z,7.30
